sensor_id;sensor_type;location;lat;lon;timestamp;P1;durP1;ratioP1;P2;durP2;ratioP2
40595;SDS011;26304;48.794;9.820;2024-02-28T00:01:38;6.13;;;5.65;;
40595;SDS011;26304;48.794;9.820;2024-02-28T00:04:10;5.72;;;5.32;;
40595;SDS011;26304;48.794;9.820;2024-02-28T00:06:32;5.40;;;5.00;;
40595;SDS011;26304;48.794;9.820;2024-02-28T00:08:55;6.25;;;5.75;;
40595;SDS011;26304;48.794;9.820;2024-02-28T00:11:17;5.82;;;5.43;;
40595;SDS011;26304;48.794;9.820;2024-02-28T00:13:40;5.30;;;4.90;;
40595;SDS011;26304;48.794;9.820;2024-02-28T00:16:02;6.43;;;5.93;;
40595;SDS011;26304;48.794;9.820;2024-02-28T00:18:24;5.95;;;5.45;;
40595;SDS011;26304;48.794;9.820;2024-02-28T00:20:48;5.38;;;4.97;;
40595;SDS011;26304;48.794;9.820;2024-02-28T00:23:10;5.32;;;4.93;;
40595;SDS011;26304;48.794;9.820;2024-02-28T00:25:32;5.93;;;5.43;;
40595;SDS011;26304;48.794;9.820;2024-02-28T00:27:55;5.63;;;5.22;;
40595;SDS011;26304;48.794;9.820;2024-02-28T00:30:18;5.00;;;4.60;;
40595;SDS011;26304;48.794;9.820;2024-02-28T00:32:40;4.95;;;4.65;;
40595;SDS011;26304;48.794;9.820;2024-02-28T00:35:03;5.00;;;4.60;;
40595;SDS011;26304;48.794;9.820;2024-02-28T00:37:27;5.57;;;5.07;;
40595;SDS011;26304;48.794;9.820;2024-02-28T00:39:49;5.40;;;4.90;;
40595;SDS011;26304;48.794;9.820;2024-02-28T00:42:12;5.30;;;4.90;;
40595;SDS011;26304;48.794;9.820;2024-02-28T00:44:34;5.20;;;4.80;;
40595;SDS011;26304;48.794;9.820;2024-02-28T00:46:57;5.53;;;5.13;;
40595;SDS011;26304;48.794;9.820;2024-02-28T00:49:19;5.70;;;5.20;;
40595;SDS011;26304;48.794;9.820;2024-02-28T00:51:42;5.18;;;4.80;;
40595;SDS011;26304;48.794;9.820;2024-02-28T00:54:06;4.97;;;4.63;;
40595;SDS011;26304;48.794;9.820;2024-02-28T00:56:30;5.30;;;4.90;;
40595;SDS011;26304;48.794;9.820;2024-02-28T00:58:52;5.13;;;4.80;;
40595;SDS011;26304;48.794;9.820;2024-02-28T01:01:15;5.22;;;4.82;;
40595;SDS011;26304;48.794;9.820;2024-02-28T01:03:37;4.43;;;4.13;;
40595;SDS011;26304;48.794;9.820;2024-02-28T01:06:00;4.75;;;4.43;;
40595;SDS011;26304;48.794;9.820;2024-02-28T01:08:24;4.80;;;4.40;;
40595;SDS011;26304;48.794;9.820;2024-02-28T01:10:48;5.35;;;4.95;;
40595;SDS011;26304;48.794;9.820;2024-02-28T01:13:11;5.00;;;4.60;;
40595;SDS011;26304;48.794;9.820;2024-02-28T01:15:34;4.80;;;4.40;;
40595;SDS011;26304;48.794;9.820;2024-02-28T01:17:55;5.55;;;4.80;;
40595;SDS011;26304;48.794;9.820;2024-02-28T01:20:17;5.13;;;4.72;;
40595;SDS011;26304;48.794;9.820;2024-02-28T01:22:40;5.28;;;4.88;;
40595;SDS011;26304;48.794;9.820;2024-02-28T01:25:02;5.05;;;4.65;;
40595;SDS011;26304;48.794;9.820;2024-02-28T01:27:26;5.03;;;4.65;;
40595;SDS011;26304;48.794;9.820;2024-02-28T01:29:49;4.32;;;4.03;;
40595;SDS011;26304;48.794;9.820;2024-02-28T01:32:11;4.85;;;4.53;;
40595;SDS011;26304;48.794;9.820;2024-02-28T01:34:33;4.53;;;4.18;;
40595;SDS011;26304;48.794;9.820;2024-02-28T01:36:56;4.90;;;4.50;;
40595;SDS011;26304;48.794;9.820;2024-02-28T01:39:18;4.30;;;4.00;;
40595;SDS011;26304;48.794;9.820;2024-02-28T01:41:40;4.60;;;4.20;;
40595;SDS011;26304;48.794;9.820;2024-02-28T01:44:05;4.72;;;4.32;;
40595;SDS011;26304;48.794;9.820;2024-02-28T01:46:28;4.65;;;4.25;;
40595;SDS011;26304;48.794;9.820;2024-02-28T01:48:52;4.68;;;4.35;;
40595;SDS011;26304;48.794;9.820;2024-02-28T01:51:15;4.13;;;3.83;;
40595;SDS011;26304;48.794;9.820;2024-02-28T01:53:38;4.78;;;4.38;;
40595;SDS011;26304;48.794;9.820;2024-02-28T01:56:01;4.95;;;4.55;;
40595;SDS011;26304;48.794;9.820;2024-02-28T01:58:24;4.55;;;4.25;;
40595;SDS011;26304;48.794;9.820;2024-02-28T02:00:48;4.70;;;4.40;;
40595;SDS011;26304;48.794;9.820;2024-02-28T02:03:11;4.90;;;4.50;;
40595;SDS011;26304;48.794;9.820;2024-02-28T02:05:34;4.90;;;4.60;;
40595;SDS011;26304;48.794;9.820;2024-02-28T02:07:56;4.30;;;4.00;;
40595;SDS011;26304;48.794;9.820;2024-02-28T02:10:19;4.78;;;4.38;;
40595;SDS011;26304;48.794;9.820;2024-02-28T02:12:42;4.32;;;4.03;;
40595;SDS011;26304;48.794;9.820;2024-02-28T02:15:04;4.70;;;4.30;;
40595;SDS011;26304;48.794;9.820;2024-02-28T02:17:29;3.88;;;3.58;;
40595;SDS011;26304;48.794;9.820;2024-02-28T02:19:51;4.97;;;4.57;;
40595;SDS011;26304;48.794;9.820;2024-02-28T02:22:15;4.40;;;4.10;;
40595;SDS011;26304;48.794;9.820;2024-02-28T02:24:40;4.50;;;4.15;;
40595;SDS011;26304;48.794;9.820;2024-02-28T02:27:02;4.43;;;4.13;;
40595;SDS011;26304;48.794;9.820;2024-02-28T02:29:25;4.38;;;4.07;;
40595;SDS011;26304;48.794;9.820;2024-02-28T02:31:48;4.55;;;4.25;;
40595;SDS011;26304;48.794;9.820;2024-02-28T02:34:11;4.30;;;4.00;;
40595;SDS011;26304;48.794;9.820;2024-02-28T02:36:33;4.32;;;3.92;;
40595;SDS011;26304;48.794;9.820;2024-02-28T02:38:56;4.55;;;4.15;;
40595;SDS011;26304;48.794;9.820;2024-02-28T02:41:20;4.40;;;4.10;;
40595;SDS011;26304;48.794;9.820;2024-02-28T02:43:42;4.32;;;4.03;;
40595;SDS011;26304;48.794;9.820;2024-02-28T02:46:04;4.30;;;4.00;;
40595;SDS011;26304;48.794;9.820;2024-02-28T02:48:27;4.25;;;3.95;;
40595;SDS011;26304;48.794;9.820;2024-02-28T02:50:49;4.50;;;4.20;;
40595;SDS011;26304;48.794;9.820;2024-02-28T02:53:12;4.47;;;4.07;;
40595;SDS011;26304;48.794;9.820;2024-02-28T02:55:35;4.57;;;4.20;;
40595;SDS011;26304;48.794;9.820;2024-02-28T02:57:59;4.22;;;3.92;;
40595;SDS011;26304;48.794;9.820;2024-02-28T03:00:21;4.22;;;3.92;;
40595;SDS011;26304;48.794;9.820;2024-02-28T03:02:44;4.00;;;3.70;;
40595;SDS011;26304;48.794;9.820;2024-02-28T03:05:06;4.40;;;4.10;;
40595;SDS011;26304;48.794;9.820;2024-02-28T03:07:29;4.30;;;4.00;;
40595;SDS011;26304;48.794;9.820;2024-02-28T03:09:52;3.80;;;3.53;;
40595;SDS011;26304;48.794;9.820;2024-02-28T03:12:14;4.10;;;3.80;;
40595;SDS011;26304;48.794;9.820;2024-02-28T03:14:38;4.32;;;4.00;;
40595;SDS011;26304;48.794;9.820;2024-02-28T03:17:00;4.15;;;3.85;;
40595;SDS011;26304;48.794;9.820;2024-02-28T03:19:23;3.80;;;3.50;;
40595;SDS011;26304;48.794;9.820;2024-02-28T03:21:45;4.40;;;4.10;;
40595;SDS011;26304;48.794;9.820;2024-02-28T03:24:07;4.03;;;3.72;;
40595;SDS011;26304;48.794;9.820;2024-02-28T03:26:30;4.07;;;3.78;;
40595;SDS011;26304;48.794;9.820;2024-02-28T03:28:52;4.15;;;3.85;;
40595;SDS011;26304;48.794;9.820;2024-02-28T03:31:16;4.38;;;4.07;;
40595;SDS011;26304;48.794;9.820;2024-02-28T03:33:38;3.97;;;3.70;;
40595;SDS011;26304;48.794;9.820;2024-02-28T03:36:01;4.22;;;3.92;;
40595;SDS011;26304;48.794;9.820;2024-02-28T03:38:24;3.97;;;3.67;;
40595;SDS011;26304;48.794;9.820;2024-02-28T03:40:46;3.80;;;3.50;;
40595;SDS011;26304;48.794;9.820;2024-02-28T03:43:08;3.83;;;3.63;;
40595;SDS011;26304;48.794;9.820;2024-02-28T03:45:31;3.72;;;3.42;;
40595;SDS011;26304;48.794;9.820;2024-02-28T03:48:00;3.83;;;3.53;;
40595;SDS011;26304;48.794;9.820;2024-02-28T03:50:22;4.15;;;3.85;;
40595;SDS011;26304;48.794;9.820;2024-02-28T03:52:45;4.07;;;3.78;;
40595;SDS011;26304;48.794;9.820;2024-02-28T03:55:07;4.05;;;3.75;;
40595;SDS011;26304;48.794;9.820;2024-02-28T03:57:30;4.15;;;3.85;;
40595;SDS011;26304;48.794;9.820;2024-02-28T03:59:53;4.07;;;3.78;;
40595;SDS011;26304;48.794;9.820;2024-02-28T04:02:15;3.65;;;3.42;;
40595;SDS011;26304;48.794;9.820;2024-02-28T04:04:39;3.80;;;3.50;;
40595;SDS011;26304;48.794;9.820;2024-02-28T04:07:01;4.18;;;3.88;;
40595;SDS011;26304;48.794;9.820;2024-02-28T04:09:24;3.72;;;3.50;;
40595;SDS011;26304;48.794;9.820;2024-02-28T04:11:46;4.10;;;3.70;;
40595;SDS011;26304;48.794;9.820;2024-02-28T04:14:09;3.75;;;3.45;;
40595;SDS011;26304;48.794;9.820;2024-02-28T04:16:31;3.88;;;3.58;;
40595;SDS011;26304;48.794;9.820;2024-02-28T04:18:53;3.85;;;3.55;;
40595;SDS011;26304;48.794;9.820;2024-02-28T04:21:17;3.60;;;3.30;;
40595;SDS011;26304;48.794;9.820;2024-02-28T04:23:40;3.92;;;3.63;;
40595;SDS011;26304;48.794;9.820;2024-02-28T04:26:02;4.10;;;3.70;;
40595;SDS011;26304;48.794;9.820;2024-02-28T04:28:25;4.20;;;3.90;;
40595;SDS011;26304;48.794;9.820;2024-02-28T04:30:47;4.25;;;3.85;;
40595;SDS011;26304;48.794;9.820;2024-02-28T04:33:10;3.83;;;3.58;;
40595;SDS011;26304;48.794;9.820;2024-02-28T04:35:32;3.95;;;3.65;;
40595;SDS011;26304;48.794;9.820;2024-02-28T04:37:56;3.72;;;3.53;;
40595;SDS011;26304;48.794;9.820;2024-02-28T04:40:19;4.38;;;3.55;;
40595;SDS011;26304;48.794;9.820;2024-02-28T04:42:41;3.88;;;3.58;;
40595;SDS011;26304;48.794;9.820;2024-02-28T04:45:04;4.18;;;3.80;;
40595;SDS011;26304;48.794;9.820;2024-02-28T04:47:27;3.60;;;3.40;;
40595;SDS011;26304;48.794;9.820;2024-02-28T04:49:50;4.13;;;3.83;;
40595;SDS011;26304;48.794;9.820;2024-02-28T04:52:12;4.07;;;3.60;;
40595;SDS011;26304;48.794;9.820;2024-02-28T04:54:36;3.05;;;2.85;;
40595;SDS011;26304;48.794;9.820;2024-02-28T04:56:58;3.75;;;3.45;;
40595;SDS011;26304;48.794;9.820;2024-02-28T04:59:21;3.63;;;3.33;;
40595;SDS011;26304;48.794;9.820;2024-02-28T05:01:44;4.20;;;3.80;;
40595;SDS011;26304;48.794;9.820;2024-02-28T05:04:06;3.58;;;3.28;;
40595;SDS011;26304;48.794;9.820;2024-02-28T05:06:29;3.70;;;3.40;;
40595;SDS011;26304;48.794;9.820;2024-02-28T05:08:52;3.47;;;3.28;;
40595;SDS011;26304;48.794;9.820;2024-02-28T05:11:15;3.53;;;3.22;;
40595;SDS011;26304;48.794;9.820;2024-02-28T05:13:38;3.85;;;3.47;;
40595;SDS011;26304;48.794;9.820;2024-02-28T05:16:00;3.80;;;3.50;;
40595;SDS011;26304;48.794;9.820;2024-02-28T05:18:23;4.00;;;3.63;;
40595;SDS011;26304;48.794;9.820;2024-02-28T05:20:46;4.10;;;3.80;;
40595;SDS011;26304;48.794;9.820;2024-02-28T05:23:08;3.90;;;3.60;;
40595;SDS011;26304;48.794;9.820;2024-02-28T05:25:30;4.15;;;3.78;;
40595;SDS011;26304;48.794;9.820;2024-02-28T05:27:54;3.95;;;3.65;;
40595;SDS011;26304;48.794;9.820;2024-02-28T05:30:17;3.42;;;3.22;;
40595;SDS011;26304;48.794;9.820;2024-02-28T05:32:40;4.45;;;3.65;;
40595;SDS011;26304;48.794;9.820;2024-02-28T05:35:03;4.32;;;3.92;;
40595;SDS011;26304;48.794;9.820;2024-02-28T05:37:26;3.60;;;3.30;;
40595;SDS011;26304;48.794;9.820;2024-02-28T05:39:48;3.63;;;3.33;;
40595;SDS011;26304;48.794;9.820;2024-02-28T05:42:11;3.75;;;3.45;;
40595;SDS011;26304;48.794;9.820;2024-02-28T05:44:34;5.45;;;3.40;;
40595;SDS011;26304;48.794;9.820;2024-02-28T05:46:57;3.53;;;3.22;;
40595;SDS011;26304;48.794;9.820;2024-02-28T05:49:19;3.70;;;3.40;;
40595;SDS011;26304;48.794;9.820;2024-02-28T05:51:43;3.78;;;3.47;;
40595;SDS011;26304;48.794;9.820;2024-02-28T05:54:07;3.85;;;3.42;;
40595;SDS011;26304;48.794;9.820;2024-02-28T05:56:29;3.30;;;3.00;;
40595;SDS011;26304;48.794;9.820;2024-02-28T05:58:52;3.72;;;3.42;;
40595;SDS011;26304;48.794;9.820;2024-02-28T06:01:16;3.17;;;2.90;;
40595;SDS011;26304;48.794;9.820;2024-02-28T06:03:39;3.17;;;2.80;;
40595;SDS011;26304;48.794;9.820;2024-02-28T06:06:01;3.05;;;2.85;;
40595;SDS011;26304;48.794;9.820;2024-02-28T06:08:25;3.42;;;3.13;;
40595;SDS011;26304;48.794;9.820;2024-02-28T06:10:48;3.50;;;3.20;;
40595;SDS011;26304;48.794;9.820;2024-02-28T06:13:10;4.32;;;3.40;;
40595;SDS011;26304;48.794;9.820;2024-02-28T06:15:33;4.65;;;3.60;;
40595;SDS011;26304;48.794;9.820;2024-02-28T06:17:57;4.38;;;3.97;;
40595;SDS011;26304;48.794;9.820;2024-02-28T06:20:20;4.07;;;3.55;;
40595;SDS011;26304;48.794;9.820;2024-02-28T06:22:43;4.00;;;3.70;;
40595;SDS011;26304;48.794;9.820;2024-02-28T06:25:06;4.03;;;3.72;;
40595;SDS011;26304;48.794;9.820;2024-02-28T06:27:35;3.95;;;3.65;;
40595;SDS011;26304;48.794;9.820;2024-02-28T06:29:58;4.72;;;4.10;;
40595;SDS011;26304;48.794;9.820;2024-02-28T06:32:22;3.85;;;3.28;;
40595;SDS011;26304;48.794;9.820;2024-02-28T06:34:46;4.07;;;3.60;;
40595;SDS011;26304;48.794;9.820;2024-02-28T06:37:09;3.97;;;3.67;;
40595;SDS011;26304;48.794;9.820;2024-02-28T06:39:32;3.92;;;3.63;;
40595;SDS011;26304;48.794;9.820;2024-02-28T06:41:54;3.70;;;3.40;;
40595;SDS011;26304;48.794;9.820;2024-02-28T06:44:17;4.82;;;4.00;;
40595;SDS011;26304;48.794;9.820;2024-02-28T06:46:40;4.78;;;4.38;;
40595;SDS011;26304;48.794;9.820;2024-02-28T06:49:02;4.53;;;4.13;;
40595;SDS011;26304;48.794;9.820;2024-02-28T06:51:26;4.80;;;4.40;;
40595;SDS011;26304;48.794;9.820;2024-02-28T06:53:48;4.63;;;4.22;;
40595;SDS011;26304;48.794;9.820;2024-02-28T06:56:11;5.72;;;3.78;;
40595;SDS011;26304;48.794;9.820;2024-02-28T06:58:33;5.53;;;4.20;;
40595;SDS011;26304;48.794;9.820;2024-02-28T07:00:56;4.25;;;3.85;;
40595;SDS011;26304;48.794;9.820;2024-02-28T07:03:18;3.80;;;3.50;;
40595;SDS011;26304;48.794;9.820;2024-02-28T07:05:40;4.10;;;3.72;;
40595;SDS011;26304;48.794;9.820;2024-02-28T07:08:04;4.65;;;4.13;;
40595;SDS011;26304;48.794;9.820;2024-02-28T07:10:27;4.18;;;3.85;;
40595;SDS011;26304;48.794;9.820;2024-02-28T07:12:50;6.03;;;4.53;;
40595;SDS011;26304;48.794;9.820;2024-02-28T07:15:12;4.72;;;4.32;;
40595;SDS011;26304;48.794;9.820;2024-02-28T07:17:34;5.05;;;4.00;;
40595;SDS011;26304;48.794;9.820;2024-02-28T07:19:57;4.03;;;3.72;;
40595;SDS011;26304;48.794;9.820;2024-02-28T07:22:19;4.78;;;4.00;;
40595;SDS011;26304;48.794;9.820;2024-02-28T07:24:43;4.95;;;3.75;;
40595;SDS011;26304;48.794;9.820;2024-02-28T07:27:06;4.72;;;3.63;;
40595;SDS011;26304;48.794;9.820;2024-02-28T07:29:28;3.90;;;3.60;;
40595;SDS011;26304;48.794;9.820;2024-02-28T07:31:51;6.55;;;4.22;;
40595;SDS011;26304;48.794;9.820;2024-02-28T07:34:14;4.68;;;4.07;;
40595;SDS011;26304;48.794;9.820;2024-02-28T07:36:37;4.32;;;3.88;;
40595;SDS011;26304;48.794;9.820;2024-02-28T07:38:59;4.28;;;3.88;;
40595;SDS011;26304;48.794;9.820;2024-02-28T07:41:23;3.83;;;3.53;;
40595;SDS011;26304;48.794;9.820;2024-02-28T07:43:45;4.32;;;3.92;;
40595;SDS011;26304;48.794;9.820;2024-02-28T07:46:08;3.80;;;3.40;;
40595;SDS011;26304;48.794;9.820;2024-02-28T07:48:31;4.20;;;3.83;;
40595;SDS011;26304;48.794;9.820;2024-02-28T07:50:54;4.13;;;3.83;;
40595;SDS011;26304;48.794;9.820;2024-02-28T07:53:16;3.63;;;3.33;;
40595;SDS011;26304;48.794;9.820;2024-02-28T07:55:39;4.15;;;3.65;;
40595;SDS011;26304;48.794;9.820;2024-02-28T07:58:03;3.70;;;3.40;;
40595;SDS011;26304;48.794;9.820;2024-02-28T08:00:26;4.15;;;3.83;;
40595;SDS011;26304;48.794;9.820;2024-02-28T08:02:49;4.00;;;3.60;;
40595;SDS011;26304;48.794;9.820;2024-02-28T08:05:12;4.00;;;3.65;;
40595;SDS011;26304;48.794;9.820;2024-02-28T08:07:35;3.75;;;3.35;;
40595;SDS011;26304;48.794;9.820;2024-02-28T08:09:57;4.40;;;4.07;;
40595;SDS011;26304;48.794;9.820;2024-02-28T08:12:20;4.03;;;3.63;;
40595;SDS011;26304;48.794;9.820;2024-02-28T08:14:43;3.80;;;3.50;;
40595;SDS011;26304;48.794;9.820;2024-02-28T08:17:06;4.05;;;3.75;;
40595;SDS011;26304;48.794;9.820;2024-02-28T08:19:29;3.72;;;3.42;;
40595;SDS011;26304;48.794;9.820;2024-02-28T08:21:51;4.25;;;3.95;;
40595;SDS011;26304;48.794;9.820;2024-02-28T08:24:14;3.30;;;3.10;;
40595;SDS011;26304;48.794;9.820;2024-02-28T08:26:36;3.78;;;3.47;;
40595;SDS011;26304;48.794;9.820;2024-02-28T08:28:59;4.03;;;3.53;;
40595;SDS011;26304;48.794;9.820;2024-02-28T08:31:23;3.50;;;3.20;;
40595;SDS011;26304;48.794;9.820;2024-02-28T08:33:46;4.00;;;3.70;;
40595;SDS011;26304;48.794;9.820;2024-02-28T08:36:09;4.13;;;3.58;;
40595;SDS011;26304;48.794;9.820;2024-02-28T08:38:31;3.70;;;3.40;;
40595;SDS011;26304;48.794;9.820;2024-02-28T08:40:55;3.70;;;3.40;;
40595;SDS011;26304;48.794;9.820;2024-02-28T08:43:18;3.85;;;3.55;;
40595;SDS011;26304;48.794;9.820;2024-02-28T08:45:40;3.75;;;3.45;;
40595;SDS011;26304;48.794;9.820;2024-02-28T08:48:04;6.03;;;3.42;;
40595;SDS011;26304;48.794;9.820;2024-02-28T08:50:27;4.03;;;3.72;;
40595;SDS011;26304;48.794;9.820;2024-02-28T08:52:50;3.80;;;3.50;;
40595;SDS011;26304;48.794;9.820;2024-02-28T08:55:12;3.72;;;3.42;;
40595;SDS011;26304;48.794;9.820;2024-02-28T08:57:39;3.60;;;3.30;;
40595;SDS011;26304;48.794;9.820;2024-02-28T09:00:01;3.20;;;3.00;;
40595;SDS011;26304;48.794;9.820;2024-02-28T09:02:24;4.10;;;3.70;;
40595;SDS011;26304;48.794;9.820;2024-02-28T09:04:49;4.13;;;3.72;;
40595;SDS011;26304;48.794;9.820;2024-02-28T09:07:13;3.80;;;3.50;;
40595;SDS011;26304;48.794;9.820;2024-02-28T09:09:41;3.45;;;3.15;;
40595;SDS011;26304;48.794;9.820;2024-02-28T09:12:04;3.95;;;3.53;;
40595;SDS011;26304;48.794;9.820;2024-02-28T09:14:27;5.32;;;3.33;;
40595;SDS011;26304;48.794;9.820;2024-02-28T09:16:49;5.15;;;3.72;;
40595;SDS011;26304;48.794;9.820;2024-02-28T09:19:12;3.90;;;3.58;;
40595;SDS011;26304;48.794;9.820;2024-02-28T09:21:36;3.88;;;3.58;;
40595;SDS011;26304;48.794;9.820;2024-02-28T09:23:58;3.63;;;3.13;;
40595;SDS011;26304;48.794;9.820;2024-02-28T09:26:22;4.47;;;3.10;;
40595;SDS011;26304;48.794;9.820;2024-02-28T09:28:44;4.40;;;3.80;;
40595;SDS011;26304;48.794;9.820;2024-02-28T09:31:07;4.43;;;3.80;;
40595;SDS011;26304;48.794;9.820;2024-02-28T09:33:29;3.92;;;3.10;;
40595;SDS011;26304;48.794;9.820;2024-02-28T09:35:52;5.68;;;3.30;;
40595;SDS011;26304;48.794;9.820;2024-02-28T09:38:16;3.97;;;3.28;;
40595;SDS011;26304;48.794;9.820;2024-02-28T09:40:38;5.70;;;3.67;;
40595;SDS011;26304;48.794;9.820;2024-02-28T09:43:01;4.20;;;3.63;;
40595;SDS011;26304;48.794;9.820;2024-02-28T09:45:24;4.35;;;3.95;;
40595;SDS011;26304;48.794;9.820;2024-02-28T09:47:51;3.72;;;3.33;;
40595;SDS011;26304;48.794;9.820;2024-02-28T09:50:13;4.18;;;3.80;;
40595;SDS011;26304;48.794;9.820;2024-02-28T09:52:37;4.13;;;3.72;;
40595;SDS011;26304;48.794;9.820;2024-02-28T09:55:01;3.67;;;3.33;;
40595;SDS011;26304;48.794;9.820;2024-02-28T09:57:23;4.18;;;3.75;;
40595;SDS011;26304;48.794;9.820;2024-02-28T09:59:49;5.72;;;3.92;;
40595;SDS011;26304;48.794;9.820;2024-02-28T10:02:11;4.63;;;3.35;;
40595;SDS011;26304;48.794;9.820;2024-02-28T10:04:37;3.83;;;3.45;;
40595;SDS011;26304;48.794;9.820;2024-02-28T10:07:09;4.10;;;3.70;;
40595;SDS011;26304;48.794;9.820;2024-02-28T10:09:33;3.45;;;3.15;;
40595;SDS011;26304;48.794;9.820;2024-02-28T10:11:57;4.75;;;3.80;;
40595;SDS011;26304;48.794;9.820;2024-02-28T10:14:19;3.72;;;3.38;;
40595;SDS011;26304;48.794;9.820;2024-02-28T10:16:42;4.22;;;3.30;;
40595;SDS011;26304;48.794;9.820;2024-02-28T10:19:04;3.97;;;3.67;;
40595;SDS011;26304;48.794;9.820;2024-02-28T10:21:27;3.53;;;3.22;;
40595;SDS011;26304;48.794;9.820;2024-02-28T10:23:53;4.63;;;3.67;;
40595;SDS011;26304;48.794;9.820;2024-02-28T10:26:15;3.55;;;3.25;;
40595;SDS011;26304;48.794;9.820;2024-02-28T10:28:39;3.50;;;3.30;;
40595;SDS011;26304;48.794;9.820;2024-02-28T10:31:04;3.88;;;3.38;;
40595;SDS011;26304;48.794;9.820;2024-02-28T10:33:28;3.80;;;3.42;;
40595;SDS011;26304;48.794;9.820;2024-02-28T10:35:51;3.85;;;3.38;;
40595;SDS011;26304;48.794;9.820;2024-02-28T10:38:14;3.60;;;3.30;;
40595;SDS011;26304;48.794;9.820;2024-02-28T10:40:36;3.33;;;3.03;;
40595;SDS011;26304;48.794;9.820;2024-02-28T10:42:59;3.80;;;3.33;;
40595;SDS011;26304;48.794;9.820;2024-02-28T10:45:25;3.85;;;3.40;;
40595;SDS011;26304;48.794;9.820;2024-02-28T10:47:52;3.30;;;3.00;;
40595;SDS011;26304;48.794;9.820;2024-02-28T10:50:15;3.75;;;3.45;;
40595;SDS011;26304;48.794;9.820;2024-02-28T10:52:39;3.63;;;3.33;;
40595;SDS011;26304;48.794;9.820;2024-02-28T10:55:06;3.72;;;3.42;;
40595;SDS011;26304;48.794;9.820;2024-02-28T10:57:31;3.50;;;3.20;;
40595;SDS011;26304;48.794;9.820;2024-02-28T10:59:55;3.45;;;3.15;;
40595;SDS011;26304;48.794;9.820;2024-02-28T11:02:21;3.33;;;3.05;;
40595;SDS011;26304;48.794;9.820;2024-02-28T11:04:45;3.25;;;3.05;;
40595;SDS011;26304;48.794;9.820;2024-02-28T11:07:08;3.35;;;3.05;;
40595;SDS011;26304;48.794;9.820;2024-02-28T11:09:31;3.20;;;3.00;;
40595;SDS011;26304;48.794;9.820;2024-02-28T11:11:54;3.47;;;3.17;;
40595;SDS011;26304;48.794;9.820;2024-02-28T11:14:17;3.78;;;3.22;;
40595;SDS011;26304;48.794;9.820;2024-02-28T11:16:42;3.33;;;3.13;;
40595;SDS011;26304;48.794;9.820;2024-02-28T11:19:08;3.22;;;2.90;;
40595;SDS011;26304;48.794;9.820;2024-02-28T11:21:42;3.33;;;2.83;;
40595;SDS011;26304;48.794;9.820;2024-02-28T11:24:05;3.35;;;3.05;;
40595;SDS011;26304;48.794;9.820;2024-02-28T11:26:29;2.70;;;2.50;;
40595;SDS011;26304;48.794;9.820;2024-02-28T11:28:52;3.17;;;2.88;;
40595;SDS011;26304;48.794;9.820;2024-02-28T11:31:14;3.67;;;3.25;;
40595;SDS011;26304;48.794;9.820;2024-02-28T11:33:37;3.63;;;3.08;;
40595;SDS011;26304;48.794;9.820;2024-02-28T11:36:00;3.22;;;3.03;;
40595;SDS011;26304;48.794;9.820;2024-02-28T11:38:24;3.13;;;2.83;;
40595;SDS011;26304;48.794;9.820;2024-02-28T11:40:48;3.72;;;3.42;;
40595;SDS011;26304;48.794;9.820;2024-02-28T11:43:11;3.05;;;2.75;;
40595;SDS011;26304;48.794;9.820;2024-02-28T11:45:38;3.45;;;3.15;;
40595;SDS011;26304;48.794;9.820;2024-02-28T11:48:02;3.17;;;2.95;;
40595;SDS011;26304;48.794;9.820;2024-02-28T11:50:25;3.95;;;3.17;;
40595;SDS011;26304;48.794;9.820;2024-02-28T11:52:52;3.05;;;2.85;;
40595;SDS011;26304;48.794;9.820;2024-02-28T11:55:15;3.25;;;2.97;;
40595;SDS011;26304;48.794;9.820;2024-02-28T11:57:37;3.28;;;3.03;;
40595;SDS011;26304;48.794;9.820;2024-02-28T12:00:02;2.97;;;2.78;;
40595;SDS011;26304;48.794;9.820;2024-02-28T12:02:26;3.33;;;2.80;;
40595;SDS011;26304;48.794;9.820;2024-02-28T12:04:51;3.13;;;2.83;;
40595;SDS011;26304;48.794;9.820;2024-02-28T12:07:15;3.63;;;2.80;;
40595;SDS011;26304;48.794;9.820;2024-02-28T12:09:39;3.85;;;3.00;;
40595;SDS011;26304;48.794;9.820;2024-02-28T12:12:01;2.83;;;2.63;;
40595;SDS011;26304;48.794;9.820;2024-02-28T12:14:25;3.47;;;3.17;;
40595;SDS011;26304;48.794;9.820;2024-02-28T12:16:47;3.22;;;2.92;;
40595;SDS011;26304;48.794;9.820;2024-02-28T12:19:10;3.03;;;2.72;;
40595;SDS011;26304;48.794;9.820;2024-02-28T12:21:36;3.40;;;3.10;;
40595;SDS011;26304;48.794;9.820;2024-02-28T12:23:58;3.60;;;3.30;;
40595;SDS011;26304;48.794;9.820;2024-02-28T12:26:21;3.25;;;2.83;;
40595;SDS011;26304;48.794;9.820;2024-02-28T12:28:44;2.72;;;2.53;;
40595;SDS011;26304;48.794;9.820;2024-02-28T12:31:06;3.53;;;3.15;;
40595;SDS011;26304;48.794;9.820;2024-02-28T12:33:29;3.25;;;3.05;;
40595;SDS011;26304;48.794;9.820;2024-02-28T12:35:53;3.10;;;2.90;;
40595;SDS011;26304;48.794;9.820;2024-02-28T12:38:17;3.50;;;3.20;;
40595;SDS011;26304;48.794;9.820;2024-02-28T12:40:40;4.25;;;2.90;;
40595;SDS011;26304;48.794;9.820;2024-02-28T12:43:04;5.72;;;3.60;;
40595;SDS011;26304;48.794;9.820;2024-02-28T12:45:27;5.05;;;3.50;;
40595;SDS011;26304;48.794;9.820;2024-02-28T12:47:49;3.45;;;3.15;;
40595;SDS011;26304;48.794;9.820;2024-02-28T12:50:11;7.10;;;3.17;;
40595;SDS011;26304;48.794;9.820;2024-02-28T12:52:34;11.45;;;4.00;;
40595;SDS011;26304;48.794;9.820;2024-02-28T12:54:57;4.53;;;4.13;;
40595;SDS011;26304;48.794;9.820;2024-02-28T12:57:19;6.78;;;5.50;;
40595;SDS011;26304;48.794;9.820;2024-02-28T12:59:43;8.13;;;5.60;;
40595;SDS011;26304;48.794;9.820;2024-02-28T13:02:06;8.10;;;5.55;;
40595;SDS011;26304;48.794;9.820;2024-02-28T13:04:28;8.07;;;5.78;;
40595;SDS011;26304;48.794;9.820;2024-02-28T13:06:51;7.38;;;5.90;;
40595;SDS011;26304;48.794;9.820;2024-02-28T13:09:14;8.23;;;5.68;;
40595;SDS011;26304;48.794;9.820;2024-02-28T13:11:36;8.52;;;5.55;;
40595;SDS011;26304;48.794;9.820;2024-02-28T13:13:58;6.55;;;5.85;;
40595;SDS011;26304;48.794;9.820;2024-02-28T13:16:22;8.98;;;5.70;;
40595;SDS011;26304;48.794;9.820;2024-02-28T13:18:45;8.02;;;5.40;;
40595;SDS011;26304;48.794;9.820;2024-02-28T13:21:07;7.53;;;5.30;;
40595;SDS011;26304;48.794;9.820;2024-02-28T13:23:30;7.70;;;5.80;;
40595;SDS011;26304;48.794;9.820;2024-02-28T13:25:54;10.07;;;5.72;;
40595;SDS011;26304;48.794;9.820;2024-02-28T13:28:17;6.78;;;6.18;;
40595;SDS011;26304;48.794;9.820;2024-02-28T13:30:39;6.53;;;5.85;;
40595;SDS011;26304;48.794;9.820;2024-02-28T13:33:03;8.07;;;6.60;;
40595;SDS011;26304;48.794;9.820;2024-02-28T13:35:26;7.47;;;6.35;;
40595;SDS011;26304;48.794;9.820;2024-02-28T13:37:48;6.95;;;6.38;;
40595;SDS011;26304;48.794;9.820;2024-02-28T13:40:11;7.43;;;6.40;;
40595;SDS011;26304;48.794;9.820;2024-02-28T13:42:33;10.40;;;6.65;;
40595;SDS011;26304;48.794;9.820;2024-02-28T13:44:56;9.07;;;7.35;;
40595;SDS011;26304;48.794;9.820;2024-02-28T13:47:18;11.18;;;8.30;;
40595;SDS011;26304;48.794;9.820;2024-02-28T13:49:42;10.20;;;8.45;;
40595;SDS011;26304;48.794;9.820;2024-02-28T13:52:04;10.75;;;9.65;;
40595;SDS011;26304;48.794;9.820;2024-02-28T13:54:27;11.07;;;9.95;;
40595;SDS011;26304;48.794;9.820;2024-02-28T13:56:50;11.93;;;10.43;;
40595;SDS011;26304;48.794;9.820;2024-02-28T13:59:13;11.23;;;9.90;;
40595;SDS011;26304;48.794;9.820;2024-02-28T14:01:35;11.30;;;10.20;;
40595;SDS011;26304;48.794;9.820;2024-02-28T14:03:58;10.75;;;9.75;;
40595;SDS011;26304;48.794;9.820;2024-02-28T14:06:21;10.88;;;9.10;;
40595;SDS011;26304;48.794;9.820;2024-02-28T14:08:44;10.13;;;9.13;;
40595;SDS011;26304;48.794;9.820;2024-02-28T14:11:06;10.27;;;9.15;;
40595;SDS011;26304;48.794;9.820;2024-02-28T14:13:29;9.27;;;8.38;;
40595;SDS011;26304;48.794;9.820;2024-02-28T14:15:51;9.63;;;8.45;;
40595;SDS011;26304;48.794;9.820;2024-02-28T14:18:15;8.73;;;7.90;;
40595;SDS011;26304;48.794;9.820;2024-02-28T14:20:38;8.55;;;7.78;;
40595;SDS011;26304;48.794;9.820;2024-02-28T14:23:02;8.02;;;7.22;;